Terminal Aerodrome Forecast
Issued by NWS Jackson, MS

Current Version | Previous Version | Text Only | Print | Product List | Glossary On
Versions: 1 2 3 4 5 6 7 8 9 10 11 12
000
FTUS44 KJAN 251140
TAFGLH
TAF
KGLH 251140Z 2512/2612 17007KT 6SM -SHRA SCT010 OVC050
     FM251700 16013G19KT P6SM -SHRA VCTS SCT030 BKN050CB
     FM260600 17011KT P6SM -SHRA VCTS OVC025CB
     FM261000 16012KT P6SM -SHRA OVC025=

USA.gov is the U.S. government's official web portal to all federal, state and local government web resources and services.